Time;durP1;ratioP1;P1;durP2;ratioP2;P2;SDS_P1;SDS_P2;PMS_P1;PMS_P2;Temp;Humidity;BMP_temperature;BMP_pressure;BME280_temperature;BME280_humidity;BME280_pressure;Samples;Min_cycle;Max_cycle;Signal;HPM_P1;HPM_P2
2023/01/06 00:01:39;;;;;;;4.92;2.58;;;;;;;3.97;100.00;101109.86;5063112;57;1142021;-68
2023/01/06 00:06:45;;;;;;;4.80;2.10;;;;;;;3.97;100.00;101112.94;5064186;56;1136736;-71
2023/01/06 00:11:50;;;;;;;5.67;2.77;;;;;;;3.91;100.00;101123.64;5093495;56;1136651;-69
2023/01/06 00:16:56;;;;;;;7.40;2.50;;;;;;;3.88;100.00;101129.39;5090714;56;1138811;-67
2023/01/06 00:22:03;;;;;;;4.13;2.43;;;;;;;3.87;100.00;101131.61;5117350;56;1136668;-67
2023/01/06 00:27:09;;;;;;;4.30;1.40;;;;;;;3.81;100.00;101140.17;5107269;56;1136662;-68
2023/01/06 00:32:15;;;;;;;5.13;2.17;;;;;;;3.78;100.00;101146.83;5093940;56;1136607;-70
2023/01/06 00:37:21;;;;;;;2.70;2.00;;;;;;;3.75;100.00;101160.88;5127639;56;1138675;-68
2023/01/06 00:42:27;;;;;;;5.00;2.07;;;;;;;3.70;100.00;101170.66;5092521;56;1136748;-67
2023/01/06 00:47:32;;;;;;;5.07;2.40;;;;;;;3.64;100.00;101178.77;5146817;56;1136648;-67
2023/01/06 00:52:38;;;;;;;4.58;2.20;;;;;;;3.64;100.00;101181.38;5127809;56;1138708;-67
2023/01/06 00:57:45;;;;;;;7.83;3.05;;;;;;;3.67;100.00;101185.61;5127674;56;1138675;-69
2023/01/06 01:02:51;;;;;;;6.70;4.08;;;;;;;3.64;100.00;101188.38;5117801;56;1136743;-72
2023/01/06 01:07:56;;;;;;;4.50;2.33;;;;;;;3.62;100.00;101191.50;5043209;57;1136698;-67
2023/01/06 01:13:02;;;;;;;8.17;2.63;;;;;;;3.60;100.00;101197.23;5043056;56;1136771;-68
2023/01/06 01:18:08;;;;;;;6.53;2.73;;;;;;;3.61;100.00;101194.57;5077826;56;1138969;-68
2023/01/06 01:23:14;;;;;;;5.03;2.53;;;;;;;3.54;100.00;101199.62;5144012;56;1136842;-67
2023/01/06 01:28:20;;;;;;;6.33;2.20;;;;;;;3.49;100.00;101198.96;5045194;57;1136885;-67
2023/01/06 01:33:26;;;;;;;5.97;3.00;;;;;;;3.52;100.00;101205.36;5012582;57;1136729;-68
2023/01/06 01:38:32;;;;;;;9.70;3.10;;;;;;;3.56;100.00;101208.27;4982634;57;1136629;-67
2023/01/06 01:43:56;;;;;;;6.62;3.10;;;;;;;3.64;100.00;101206.23;4952542;57;1136779;-69
2023/01/06 01:49:09;;;;;;;7.28;3.80;;;;;;;3.64;100.00;101204.07;4954386;57;1136781;-70
2023/01/06 01:54:21;;;;;;;8.15;3.60;;;;;;;3.63;100.00;101204.98;4962533;57;1136605;-69
2023/01/06 01:59:31;;;;;;;4.93;2.60;;;;;;;3.56;100.00;101208.72;5018780;57;1136767;-70
2023/01/06 02:04:41;;;;;;;3.92;1.85;;;;;;;3.44;100.00;101218.73;5045649;57;1136845;-68
2023/01/06 02:10:02;;;;;;;2.53;2.07;;;;;;;3.45;100.00;101223.52;5046016;57;1136780;-70
2023/01/06 02:15:16;;;;;;;3.63;2.30;;;;;;;3.52;100.00;101234.98;5046192;57;1136945;-68
2023/01/06 02:20:58;;;;;;;2.83;2.60;;;;;;;3.59;100.00;101233.00;5065540;57;1136696;-69
2023/01/06 02:26:37;;;;;;;5.40;2.80;;;;;;;3.64;100.00;101250.70;5045808;56;1136590;-69
2023/01/06 02:31:50;;;;;;;6.03;2.70;;;;;;;3.62;100.00;101259.50;5041601;57;1136523;-68
2023/01/06 02:37:05;;;;;;;4.63;2.80;;;;;;;3.59;100.00;101259.61;4982996;57;1136971;-71
2023/01/06 02:42:33;;;;;;;7.33;2.60;;;;;;;3.56;100.00;101255.34;4963880;57;1136760;-71
2023/01/06 02:47:58;;;;;;;7.57;3.83;;;;;;;3.60;100.00;101250.41;4964465;57;1136852;-70
2023/01/06 02:53:42;;;;;;;5.07;3.00;;;;;;;3.66;100.00;101249.34;4798909;59;1139041;-69
2023/01/06 02:58:56;;;;;;;8.40;3.47;;;;;;;3.63;100.00;101252.91;4871542;58;1136765;-69
2023/01/06 03:04:05;;;;;;;4.53;2.60;;;;;;;3.65;100.00;101251.55;4805658;58;1136665;-70
2023/01/06 03:09:20;;;;;;;6.67;3.80;;;;;;;3.62;100.00;101255.13;4883872;57;1136904;-67
2023/01/06 03:14:43;;;;;;;4.70;2.97;;;;;;;3.61;100.00;101246.87;4902738;57;1136637;-67
2023/01/06 03:19:49;;;;;;;16.83;5.00;;;;;;;3.57;100.00;101249.20;4942660;57;1136569;-66
2023/01/06 03:24:55;;;;;;;11.33;5.08;;;;;;;3.59;100.00;101243.92;4962736;57;1138754;-68
2023/01/06 03:30:07;;;;;;;8.80;3.80;;;;;;;3.63;100.00;101242.91;5013676;56;1140939;-67
2023/01/06 03:35:36;;;;;;;5.25;3.15;;;;;;;3.66;100.00;101242.34;5059942;56;1136667;-68
2023/01/06 03:40:58;;;;;;;5.45;2.65;;;;;;;3.68;100.00;101245.72;5034116;56;1136699;-70
2023/01/06 03:46:37;;;;;;;5.03;2.63;;;;;;;3.66;100.00;101247.58;5035798;57;1136639;-69
2023/01/06 03:52:09;;;;;;;5.20;2.80;;;;;;;3.64;100.00;101246.77;4982119;57;1136820;-67
2023/01/06 03:57:33;;;;;;;3.30;2.55;;;;;;;3.60;100.00;101241.70;4880553;59;1139077;-70
2023/01/06 04:02:42;;;;;;;4.53;3.30;;;;;;;3.56;100.00;101244.88;4888963;58;1136762;-70
2023/01/06 04:07:50;;;;;;;8.05;2.72;;;;;;;3.52;100.00;101247.20;4879740;58;1136681;-70
2023/01/06 04:12:57;;;;;;;7.78;3.58;;;;;;;3.48;100.00;101249.55;4963798;58;1136745;-69
2023/01/06 04:18:05;;;;;;;30.12;8.25;;;;;;;3.37;100.00;101241.22;4884173;59;1136723;-71
2023/01/06 04:23:13;;;;;;;63.33;22.10;;;;;;;3.34;100.00;101242.22;4982790;57;1138838;-69
2023/01/06 04:28:20;;;;;;;29.90;10.33;;;;;;;3.34;100.00;101247.89;4879423;57;1140836;-69
2023/01/06 04:33:30;;;;;;;20.00;6.53;;;;;;;3.39;100.00;101253.34;4922596;58;1142986;-72
2023/01/06 04:38:37;;;;;;;14.77;6.10;;;;;;;3.34;100.00;101260.97;5141616;56;1138749;-70
2023/01/06 04:43:43;;;;;;;10.67;4.00;;;;;;;3.25;100.00;101263.89;5122219;56;1138754;-68
2023/01/06 04:48:49;;;;;;;13.35;5.10;;;;;;;3.16;100.00;101274.23;5079734;56;1138708;-70
2023/01/06 04:53:56;;;;;;;14.93;5.20;;;;;;;3.08;100.00;101265.79;5064927;57;1138786;-69
2023/01/06 04:59:02;;;;;;;22.77;9.70;;;;;;;3.09;100.00;101269.66;5045137;57;1138874;-67
2023/01/06 05:04:07;;;;;;;24.02;8.95;;;;;;;3.18;100.00;101258.91;5044863;57;1138829;-70
2023/01/06 05:09:13;;;;;;;19.03;7.00;;;;;;;3.23;100.00;101265.70;5064301;57;1138944;-69
2023/01/06 05:14:19;;;;;;;32.00;8.00;;;;;;;3.28;100.00;101256.80;5044980;57;1139007;-71
2023/01/06 05:19:26;;;;;;;15.23;4.17;;;;;;;3.30;100.00;101258.06;5102185;56;1138792;-70
2023/01/06 05:24:32;;;;;;;14.97;5.37;;;;;;;3.28;100.00;101259.41;5150119;56;1138700;-69
2023/01/06 05:29:38;;;;;;;18.03;7.43;;;;;;;3.32;100.00;101261.47;5129735;55;1140791;-69
2023/01/06 05:34:43;;;;;;;15.57;5.83;;;;;;;3.35;100.00;101258.30;5072946;56;1138779;-66
2023/01/06 05:39:49;;;;;;;10.08;4.25;;;;;;;3.39;100.00;101262.94;5063006;57;1138777;-68
2023/01/06 05:44:55;;;;;;;5.70;3.10;;;;;;;3.37;100.00;101262.99;5087521;56;1138965;-70
2023/01/06 05:50:01;;;;;;;18.05;5.42;;;;;;;3.33;100.00;101255.34;5128341;56;1136731;-68
2023/01/06 05:55:07;;;;;;;9.23;3.70;;;;;;;3.36;100.00;101258.67;5127859;55;1141064;-68
2023/01/06 06:00:14;;;;;;;6.63;3.20;;;;;;;3.40;100.00;101258.97;5148358;56;1136771;-67
2023/01/06 06:05:20;;;;;;;10.77;5.30;;;;;;;3.37;100.00;101260.83;5128256;56;1136819;-70
2023/01/06 06:10:26;;;;;;;16.03;5.00;;;;;;;3.32;100.00;101263.63;5127652;56;1138668;-69
2023/01/06 06:15:32;;;;;;;15.95;6.42;;;;;;;3.31;100.00;101261.08;5147992;56;1138990;-71
2023/01/06 06:20:38;;;;;;;8.53;5.10;;;;;;;3.35;100.00;101281.83;5127825;56;1140843;-67
2023/01/06 06:25:44;;;;;;;8.57;2.93;;;;;;;3.31;100.00;101276.76;5128151;56;1136858;-71
2023/01/06 06:30:52;;;;;;;8.70;4.50;;;;;;;3.24;100.00;101289.18;5148725;56;1136662;-67
2023/01/06 06:35:59;;;;;;;6.25;3.45;;;;;;;3.15;100.00;101279.91;5048067;56;1137084;-70
2023/01/06 06:41:05;;;;;;;4.50;2.00;;;;;;;3.10;100.00;101276.59;5041673;57;1136721;-67
2023/01/06 06:46:11;;;;;;;4.43;2.70;;;;;;;3.09;100.00;101268.35;5045640;57;1136968;-67
2023/01/06 06:51:21;;;;;;;5.67;2.43;;;;;;;3.13;100.00;101249.50;5065493;57;1136751;-69
2023/01/06 06:56:26;;;;;;;5.80;3.93;;;;;;;3.14;100.00;101263.83;5045811;57;1136593;-69
2023/01/06 07:01:32;;;;;;;9.20;3.30;;;;;;;3.16;100.00;101270.31;5045736;57;1136761;-68
2023/01/06 07:06:38;;;;;;;2.70;2.03;;;;;;;3.10;100.00;101265.28;5065540;57;1136964;-71
2023/01/06 07:11:44;;;;;;;4.28;2.25;;;;;;;3.02;100.00;101268.18;5060435;57;1136677;-67
2023/01/06 07:16:50;;;;;;;4.80;2.90;;;;;;;3.02;100.00;101262.09;5030488;57;1138838;-68
2023/01/06 07:21:57;;;;;;;7.25;5.05;;;;;;;3.00;100.00;101267.83;5065457;56;1136900;-70
2023/01/06 07:27:02;;;;;;;7.33;3.83;;;;;;;2.97;100.00;101265.31;5046092;56;1136876;-67
2023/01/06 07:32:08;;;;;;;3.58;2.92;;;;;;;2.94;100.00;101254.51;5045893;57;1136770;-67
2023/01/06 07:37:14;;;;;;;6.03;3.03;;;;;;;2.98;100.00;101261.80;5064220;56;1136865;-70
2023/01/06 07:42:20;;;;;;;6.40;2.70;;;;;;;3.01;100.00;101252.10;5043232;57;1138647;-69
2023/01/06 07:47:26;;;;;;;7.70;4.37;;;;;;;2.98;100.00;101245.67;5043569;57;1136659;-68
2023/01/06 07:52:31;;;;;;;9.17;4.33;;;;;;;2.99;100.00;101241.30;5063097;57;1136654;-69
2023/01/06 07:57:37;;;;;;;7.83;4.00;;;;;;;2.98;100.00;101253.50;5043269;57;1136950;-69
2023/01/06 08:02:43;;;;;;;5.70;3.57;;;;;;;3.02;100.00;101249.89;5043430;57;1136704;-67
2023/01/06 08:07:49;;;;;;;9.00;3.87;;;;;;;3.06;100.00;101247.55;5082006;56;1136844;-68
2023/01/06 08:12:55;;;;;;;10.40;4.50;;;;;;;3.10;100.00;101230.86;5084482;56;1136650;-70
2023/01/06 08:18:01;;;;;;;551.50;302.37;;;;;;;3.04;100.00;101226.32;5076357;56;1138688;-70
2023/01/06 08:23:06;;;;;;;13.83;9.73;;;;;;;3.02;100.00;101224.21;5126827;56;1145146;-70
2023/01/06 08:28:12;;;;;;;47.37;21.33;;;;;;;3.05;100.00;101230.19;5124847;56;1138878;-70
2023/01/06 08:33:18;;;;;;;15.67;6.03;;;;;;;3.05;100.00;101216.27;5089952;56;1140974;-68
2023/01/06 08:38:24;;;;;;;116.17;46.28;;;;;;;3.01;100.00;101237.73;5062628;56;1138925;-70
2023/01/06 08:43:30;;;;;;;167.67;56.43;;;;;;;2.97;100.00;101250.48;5121124;56;1142954;-72
2023/01/06 08:48:36;;;;;;;13.70;6.63;;;;;;;2.98;100.00;101252.66;5101610;56;1142933;-70
2023/01/06 08:53:43;;;;;;;6.27;4.43;;;;;;;2.95;100.00;101240.55;5091297;56;1138873;-67
2023/01/06 08:58:58;;;;;;;9.13;4.72;;;;;;;3.01;100.00;101227.73;5089459;56;1138832;-66
2023/01/06 09:04:07;;;;;;;9.80;4.20;;;;;;;3.02;100.00;101218.53;5104151;56;1136719;-69
2023/01/06 09:09:13;;;;;;;7.78;5.15;;;;;;;3.05;100.00;101196.67;5078006;56;1136861;-68
2023/01/06 09:14:19;;;;;;;6.87;4.20;;;;;;;3.06;100.00;101190.51;5058406;57;1136881;-68
2023/01/06 09:19:25;;;;;;;19.70;8.03;;;;;;;3.10;100.00;101196.89;5094571;56;1139007;-69
2023/01/06 09:24:31;;;;;;;7.93;4.80;;;;;;;3.13;100.00;101195.47;5122179;56;1138712;-71
2023/01/06 09:29:36;;;;;;;7.47;4.20;;;;;;;3.15;100.00;101174.52;5106422;56;1136911;-70
2023/01/06 09:34:42;;;;;;;7.67;4.47;;;;;;;3.18;100.00;101179.19;5080577;56;1136790;-68
2023/01/06 09:39:49;;;;;;;14.00;7.50;;;;;;;3.23;100.00;101171.15;5070048;56;1168812;-70
2023/01/06 09:45:04;;;;;;;59.35;23.20;;;;;;;3.20;100.00;101176.97;5063746;56;1138773;-68
2023/01/06 09:50:23;;;;;;;34.13;15.10;;;;;;;3.17;100.00;101156.56;5043241;56;1140810;-70
2023/01/06 09:55:36;;;;;;;32.47;10.43;;;;;;;3.17;100.00;101151.80;5043027;56;1141186;-68
2023/01/06 10:00:48;;;;;;;23.13;7.20;;;;;;;3.18;100.00;101153.50;5063341;56;1140929;-70
2023/01/06 10:06:23;;;;;;;17.23;6.60;;;;;;;3.23;100.00;101144.16;5044392;56;1138876;-68
2023/01/06 10:11:40;;;;;;;9.77;5.20;;;;;;;3.25;100.00;101127.97;5080526;56;1138761;-69
2023/01/06 10:17:00;;;;;;;11.63;5.23;;;;;;;3.17;100.00;101116.05;5105309;56;1136745;-70
2023/01/06 10:22:13;;;;;;;9.35;4.87;;;;;;;3.13;100.00;101092.70;5115465;56;1138769;-67
2023/01/06 10:27:26;;;;;;;;;;;;;;;3.12;100.00;101077.47;5109876;56;1136848;-68
2023/01/06 10:32:35;;;;;;;12.57;6.60;;;;;;;3.13;100.00;101080.94;5128629;56;973897;-70
2023/01/06 10:37:45;;;;;;;6.50;3.93;;;;;;;3.13;100.00;101090.94;5047656;56;1136648;-70
2023/01/06 10:42:59;;;;;;;10.80;4.40;;;;;;;3.12;100.00;101081.84;5101442;56;1136783;-70
2023/01/06 10:48:08;;;;;;;14.13;5.65;;;;;;;3.13;100.00;101082.24;5044254;56;1138900;-69
2023/01/06 10:53:15;;;;;;;6.80;3.43;;;;;;;3.14;100.00;101082.19;5045841;56;1138983;-67
2023/01/06 10:58:42;;;;;;;7.77;3.77;;;;;;;3.09;100.00;101068.43;5122959;56;1136619;-69
2023/01/06 11:04:10;;;;;;;8.90;3.77;;;;;;;3.05;100.00;101051.19;5032060;56;1136835;-69
2023/01/06 11:09:35;;;;;;;6.67;4.43;;;;;;;3.11;100.00;101044.41;5048624;56;1136619;-68
2023/01/06 11:14:41;;;;;;;4.67;3.90;;;;;;;3.14;100.00;101014.23;5129037;56;1136701;-70
2023/01/06 11:19:50;;;;;;;13.63;5.20;;;;;;;3.10;100.00;100986.52;5084884;56;1136811;-70
2023/01/06 11:24:56;;;;;;;9.92;5.40;;;;;;;3.04;100.00;100959.79;5040949;56;1138855;-71
2023/01/06 11:30:20;;;;;;;73.30;21.52;;;;;;;3.00;100.00;100962.97;5043589;57;1136825;-68
2023/01/06 11:35:30;;;;;;;28.67;8.10;;;;;;;3.03;100.00;100947.63;5102089;56;1140807;-70
2023/01/06 11:40:38;;;;;;;56.07;34.40;;;;;;;3.03;100.00;100952.86;5089390;56;1138709;-70
2023/01/06 11:45:47;;;;;;;70.13;34.23;;;;;;;3.03;100.00;100955.02;5076611;56;1141014;-67
2023/01/06 11:51:03;;;;;;;285.47;92.37;;;;;;;3.02;100.00;100945.48;5044039;55;1140883;-71
2023/01/06 11:56:17;;;;;;;31.40;13.03;;;;;;;3.05;100.00;100944.05;4993180;56;1142990;-71
2023/01/06 12:01:56;;;;;;;34.47;9.10;;;;;;;3.06;100.00;100932.66;5036605;56;1141046;-67
2023/01/06 12:07:25;;;;;;;15.10;6.70;;;;;;;3.03;100.00;100930.20;5015201;57;1138812;-69
2023/01/06 12:12:31;;;;;;;15.90;8.80;;;;;;;3.01;100.00;100911.56;5017272;56;1139018;-69
2023/01/06 12:17:42;;;;;;;15.67;8.30;;;;;;;3.02;100.00;100897.59;5064662;56;1138717;-71
2023/01/06 12:22:55;;;;;;;32.10;17.67;;;;;;;3.04;100.00;100876.17;5044754;56;1138791;-70
2023/01/06 12:28:30;;;;;;;27.77;10.78;;;;;;;3.06;100.00;100881.70;5024510;56;1140816;-65
2023/01/06 12:33:49;;;;;;;19.30;10.07;;;;;;;3.06;100.00;100865.17;5009905;57;1141299;-72
2023/01/06 12:38:57;;;;;;;15.83;8.30;;;;;;;3.04;100.00;100848.73;4982583;57;1141004;-71
2023/01/06 12:44:34;;;;;;;16.32;9.18;;;;;;;3.03;100.00;100824.83;5036797;56;1138773;-71
2023/01/06 12:50:19;;;;;;;21.50;11.57;;;;;;;3.00;100.00;100810.58;5051842;56;1138876;-71
2023/01/06 12:55:32;;;;;;;39.50;18.17;;;;;;;3.01;100.00;100800.07;5127278;56;1140806;-65
2023/01/06 13:00:51;;;;;;;23.47;13.25;;;;;;;3.04;100.00;100797.79;5092998;56;1140945;-68
2023/01/06 13:06:19;;;;;;;28.35;14.95;;;;;;;3.07;100.00;100791.95;5127462;56;1143058;-73
2023/01/06 13:11:38;;;;;;;28.43;14.23;;;;;;;3.10;100.00;100791.83;5127332;56;1140904;-68
2023/01/06 13:17:03;;;;;;;43.97;19.40;;;;;;;3.12;100.00;100794.38;5053613;56;1140955;-68
2023/01/06 13:22:13;;;;;;;29.03;14.93;;;;;;;3.16;100.00;100799.87;5037256;57;1140921;-75
2023/01/06 13:27:57;;;;;;;50.17;22.40;;;;;;;3.20;100.00;100794.07;5062033;57;1143194;-71
2023/01/06 13:33:36;;;;;;;51.25;24.37;;;;;;;3.27;100.00;100792.87;4937229;57;1143550;-75
2023/01/06 13:39:00;;;;;;;42.10;20.60;;;;;;;3.27;100.00;100779.34;5044608;56;1140957;-69
2023/01/06 13:44:16;;;;;;;34.05;17.77;;;;;;;3.26;100.00;100772.42;5042985;56;1140878;-68
2023/01/06 13:49:22;;;;;;;86.23;29.23;;;;;;;3.26;100.00;100767.19;5062214;56;1140811;-69
2023/01/06 13:54:45;;;;;;;78.33;29.70;;;;;;;3.31;100.00;100768.31;5043196;56;1143197;-71
2023/01/06 14:00:06;;;;;;;336.63;93.43;;;;;;;3.37;100.00;100769.33;5127579;56;1142785;-66
2023/01/06 14:05:23;;;;;;;109.95;34.45;;;;;;;3.37;100.00;100768.02;5127973;56;1142968;-71
2023/01/06 14:10:38;;;;;;;37.47;19.67;;;;;;;3.34;100.00;100768.18;5147473;56;1143196;-74
2023/01/06 14:15:57;;;;;;;56.50;25.30;;;;;;;3.36;100.00;100758.02;5069712;56;1140781;-69
2023/01/06 14:21:07;;;;;;;135.83;43.50;;;;;;;3.38;100.00;100753.58;5127463;56;1142909;-66
2023/01/06 14:26:13;;;;;;;95.03;32.60;;;;;;;3.40;100.00;100749.14;5120239;56;1145149;-68
2023/01/06 14:31:37;;;;;;;58.13;20.80;;;;;;;3.40;100.00;100744.36;5147919;56;1140791;-72
2023/01/06 14:36:42;;;;;;;67.37;29.93;;;;;;;3.40;100.00;100745.22;5042935;57;1140806;-68
2023/01/06 14:42:04;;;;;;;62.67;28.53;;;;;;;3.42;100.00;100726.84;5042418;57;1143141;-71
2023/01/06 14:47:17;;;;;;;47.05;23.90;;;;;;;3.44;100.00;100721.09;5043242;57;1140882;-70
2023/01/06 14:52:32;;;;;;;42.83;19.37;;;;;;;3.44;100.00;100714.10;5058207;56;1141087;-72
2023/01/06 14:57:39;;;;;;;59.33;30.27;;;;;;;3.42;100.00;100706.78;5078276;56;1140962;-69
2023/01/06 15:02:55;;;;;;;46.80;21.80;;;;;;;3.48;100.00;100714.36;5037627;57;1143107;-69
2023/01/06 15:08:11;;;;;;;71.83;27.87;;;;;;;3.51;100.00;100699.81;5109570;56;1142885;-70
2023/01/06 15:13:31;;;;;;;63.40;29.87;;;;;;;3.52;100.00;100680.59;5099289;56;1140860;-74
2023/01/06 15:18:41;;;;;;;36.23;19.30;;;;;;;3.55;100.00;100680.92;5107883;56;1141116;-66
2023/01/06 15:23:50;;;;;;;57.23;25.93;;;;;;;3.60;100.00;100669.80;5112110;56;1142902;-71
2023/01/06 15:29:01;;;;;;;53.63;19.57;;;;;;;3.64;100.00;100660.05;5074991;56;1143043;-70
2023/01/06 15:34:35;;;;;;;27.42;15.55;;;;;;;3.70;100.00;100654.05;5066924;56;1142905;-67
2023/01/06 15:39:41;;;;;;;171.17;43.70;;;;;;;3.71;100.00;100645.75;5087009;56;1141009;-69
2023/01/06 15:45:00;;;;;;;66.50;25.07;;;;;;;3.73;100.00;100650.45;5114824;56;1142766;-67
2023/01/06 15:50:18;;;;;;;71.07;26.57;;;;;;;3.77;100.00;100650.24;5095109;56;1142889;-71
2023/01/06 15:55:34;;;;;;;106.43;35.07;;;;;;;3.82;100.00;100658.70;5111304;56;1143319;-68
2023/01/06 16:00:48;;;;;;;121.07;41.50;;;;;;;3.87;100.00;100653.25;5147160;56;1145088;-69
2023/01/06 16:06:10;;;;;;;71.42;27.95;;;;;;;3.91;100.00;100650.89;5109687;56;1142950;-72
2023/01/06 16:12:15;;;;;;;64.30;23.43;;;;;;;3.91;100.00;100650.89;5100442;56;1141041;-69
2023/01/06 16:16:41;;;;;;;53.77;18.03;;;;;;;3.94;100.00;100655.13;5038047;56;1143143;-72
2023/01/06 16:21:47;;;;;;;38.53;16.77;;;;;;;3.96;100.00;100660.69;5147156;56;1143034;-73
2023/01/06 16:26:57;;;;;;;47.57;19.13;;;;;;;3.98;100.00;100657.50;5086253;56;1142958;-72
2023/01/06 16:32:30;;;;;;;82.50;34.95;;;;;;;4.02;100.00;100651.67;5117286;56;1143019;-71
2023/01/06 16:37:35;;;;;;;43.63;17.23;;;;;;;4.04;100.00;100641.98;5043694;56;1142942;-70
2023/01/06 16:42:43;;;;;;;30.27;16.10;;;;;;;4.07;100.00;100636.61;5062764;56;1143018;-68
2023/01/06 16:47:48;;;;;;;24.63;13.23;;;;;;;4.10;100.00;100629.45;5043230;56;1143112;-72
2023/01/06 16:53:07;;;;;;;20.93;9.90;;;;;;;4.18;100.00;100625.13;5041176;56;1257641;-72
2023/01/06 16:58:24;;;;;;;19.98;10.15;;;;;;;4.25;100.00;100634.39;5099773;56;1140875;-69
2023/01/06 17:03:36;;;;;;;16.17;10.60;;;;;;;4.28;100.00;100625.05;5147496;56;1142855;-67
2023/01/06 17:08:42;;;;;;;11.67;8.30;;;;;;;4.34;100.00;100629.15;5127409;56;1142829;-72
2023/01/06 17:13:58;;;;;;;14.83;9.60;;;;;;;4.38;100.00;100642.02;5118500;56;1140966;-71
2023/01/06 17:19:31;;;;;;;14.93;9.57;;;;;;;4.39;100.00;100642.41;5115551;56;1140780;-74
2023/01/06 17:24:31;;;;;;;17.43;11.33;;;;;;;4.47;100.00;100638.92;5062170;56;1140868;-68
2023/01/06 17:29:38;;;;;;;13.72;8.20;;;;;;;4.53;100.00;100643.86;5043195;57;1143051;-70
2023/01/06 17:34:44;;;;;;;13.57;9.93;;;;;;;4.59;100.00;100639.61;5098667;56;1141040;-72
2023/01/06 17:39:51;;;;;;;20.93;14.03;;;;;;;4.66;100.00;100638.84;5081929;56;1140719;-70
2023/01/06 17:44:59;;;;;;;26.50;17.03;;;;;;;4.72;100.00;100646.86;5043176;57;1143052;-69
2023/01/06 17:50:34;;;;;;;26.17;16.40;;;;;;;4.79;100.00;100645.60;5042810;57;1142979;-71
2023/01/06 17:55:46;;;;;;;21.65;14.13;;;;;;;4.86;100.00;100659.64;5040863;56;1142995;-70
2023/01/06 18:00:52;;;;;;;15.43;11.57;;;;;;;4.95;100.00;100660.92;5057939;56;1143138;-73
2023/01/06 18:06:25;;;;;;;24.73;14.00;;;;;;;5.03;100.00;100663.16;5017870;56;1143159;-72
2023/01/06 18:11:46;;;;;;;20.62;13.15;;;;;;;5.10;100.00;100682.40;4801604;59;1143052;-74
2023/01/06 18:16:55;;;;;;;17.30;11.40;;;;;;;5.21;100.00;100699.72;4813950;58;1143152;-72
2023/01/06 18:22:05;;;;;;;19.00;11.80;;;;;;;5.28;100.00;100692.39;4896895;59;1143152;-70
2023/01/06 18:27:18;;;;;;;13.43;10.68;;;;;;;5.40;100.00;100704.00;4877636;59;1143009;-73
2023/01/06 18:32:32;;;;;;;12.83;9.10;;;;;;;5.51;100.00;100707.73;4859736;58;1143042;-73
2023/01/06 18:37:38;;;;;;;14.50;9.50;;;;;;;5.62;100.00;100711.11;4820319;60;1140915;-72
2023/01/06 18:42:55;;;;;;;14.37;10.53;;;;;;;5.70;100.00;100704.13;4801374;60;1140884;-67
2023/01/06 18:48:08;;;;;;;14.67;10.70;;;;;;;5.77;100.00;100709.43;5020343;57;1143136;-72
2023/01/06 18:53:20;;;;;;;19.20;11.43;;;;;;;5.82;100.00;100711.31;5094560;56;1143128;-72
2023/01/06 18:58:56;;;;;;;13.70;9.93;;;;;;;5.87;100.00;100724.58;5141802;56;1142957;-73
2023/01/06 19:04:07;;;;;;;13.77;9.47;;;;;;;5.92;100.00;100733.56;5122068;56;1140937;-70
2023/01/06 19:09:23;;;;;;;11.87;8.73;;;;;;;5.97;100.00;100736.30;5122359;56;1140803;-70
2023/01/06 19:14:32;;;;;;;15.20;9.70;;;;;;;6.06;100.00;100740.20;5081648;56;1140742;-74
2023/01/06 19:19:41;;;;;;;20.97;15.37;;;;;;;6.15;100.00;100743.62;5117905;56;1140868;-67
2023/01/06 19:25:09;;;;;;;14.93;10.20;;;;;;;6.17;100.00;100747.02;5089307;56;1142919;-71
2023/01/06 19:30:38;;;;;;;24.05;12.30;;;;;;;6.17;100.00;100745.70;5121682;56;1143040;-69
2023/01/06 19:35:45;;;;;;;14.23;9.03;;;;;;;6.20;100.00;100749.94;5017597;57;1143093;-71
2023/01/06 19:40:51;;;;;;;12.90;9.10;;;;;;;6.20;100.00;100761.30;5057426;57;1140829;-69
2023/01/06 19:46:02;;;;;;;12.98;8.85;;;;;;;6.23;100.00;100783.92;5027942;57;1140984;-69
2023/01/06 19:51:34;;;;;;;15.03;10.95;;;;;;;6.23;100.00;100772.95;5024045;57;1141025;-73
2023/01/06 19:56:43;;;;;;;14.00;10.20;;;;;;;6.25;100.00;100770.23;5036525;57;1142921;-70
2023/01/06 20:02:03;;;;;;;18.65;11.12;;;;;;;6.27;100.00;100794.14;4993040;57;1143016;-69
2023/01/06 20:07:09;;;;;;;19.23;9.75;;;;;;;6.28;100.00;100799.78;4962587;58;1143181;-68
2023/01/06 20:12:15;;;;;;;13.33;8.30;;;;;;;6.27;100.00;100812.53;4963165;58;1140920;-73
2023/01/06 20:17:21;;;;;;;11.03;7.67;;;;;;;6.27;100.00;100810.37;5004165;57;1140946;-68
2023/01/06 20:22:27;;;;;;;12.33;7.40;;;;;;;6.28;100.00;100817.31;5044556;57;1140837;-70
2023/01/06 20:27:34;;;;;;;10.80;7.87;;;;;;;6.30;100.00;100815.45;5044861;57;1140791;-69
2023/01/06 20:32:40;;;;;;;10.13;7.63;;;;;;;6.29;100.00;100822.48;5008983;57;1141000;-73
2023/01/06 20:37:47;;;;;;;10.10;7.20;;;;;;;6.29;100.00;100825.12;4962890;58;1140939;-70
2023/01/06 20:42:53;;;;;;;11.93;7.23;;;;;;;6.28;100.00;100840.95;4972059;57;1141004;-73
2023/01/06 20:48:00;;;;;;;11.53;7.62;;;;;;;6.26;100.00;100841.53;5050658;57;1141040;-69
2023/01/06 20:53:06;;;;;;;8.37;7.30;;;;;;;6.23;100.00;100839.92;5043947;57;1140808;-68
2023/01/06 20:58:13;;;;;;;6.97;5.30;;;;;;;6.20;100.00;100840.55;5045492;56;1138914;-73
2023/01/06 21:03:19;;;;;;;9.63;6.43;;;;;;;6.25;100.00;100845.09;5064762;56;1138927;-72
2023/01/06 21:08:25;;;;;;;11.53;6.53;;;;;;;6.28;100.00;100858.03;5044863;56;1138946;-68
2023/01/06 21:13:32;;;;;;;9.00;6.87;;;;;;;6.31;100.00;100856.55;5025381;57;1140922;-70
2023/01/06 21:18:38;;;;;;;8.57;6.73;;;;;;;6.32;100.00;100855.16;5025636;57;1138818;-66
2023/01/06 21:23:44;;;;;;;11.15;7.35;;;;;;;6.34;100.00;100859.88;5044749;57;1138867;-72
2023/01/06 21:28:50;;;;;;;14.63;9.00;;;;;;;6.35;100.00;100864.20;5044895;56;1140801;-73
2023/01/06 21:33:57;;;;;;;10.70;6.93;;;;;;;6.37;100.00;100869.84;5023055;56;1140842;-72
2023/01/06 21:39:06;;;;;;;14.10;9.17;;;;;;;6.37;100.00;100879.03;4970169;57;1150622;-73
2023/01/06 21:44:11;;;;;;;22.77;10.45;;;;;;;6.33;100.00;100895.41;5044817;57;1140802;-70
2023/01/06 21:49:17;;;;;;;16.20;9.13;;;;;;;6.32;100.00;100909.02;5044956;56;1145106;-70
2023/01/06 21:54:23;;;;;;;14.20;8.50;;;;;;;6.31;100.00;100907.31;5064957;57;1140843;-71
2023/01/06 21:59:30;;;;;;;10.70;7.20;;;;;;;6.33;100.00;100922.53;5044555;56;1140789;-71
2023/01/06 22:04:35;;;;;;;15.23;8.00;;;;;;;6.35;100.00;100921.14;5073640;56;1140939;-73
2023/01/06 22:09:44;;;;;;;11.93;7.80;;;;;;;6.32;100.00;100914.27;5141910;56;1141076;-68
2023/01/06 22:14:55;;;;;;;12.73;7.90;;;;;;;6.36;100.00;100938.60;5111458;56;1140939;-74
2023/01/06 22:20:03;;;;;;;11.53;8.07;;;;;;;6.38;100.00;100944.63;5118541;56;1141327;-68
2023/01/06 22:25:10;;;;;;;11.17;7.80;;;;;;;6.42;100.00;100943.97;5107162;56;1140879;-71
2023/01/06 22:30:16;;;;;;;12.65;6.12;;;;;;;6.43;100.00;100943.89;5142588;56;1140903;-70
2023/01/06 22:35:21;;;;;;;12.10;7.43;;;;;;;6.43;100.00;100945.20;5055979;56;1140951;-70
2023/01/06 22:40:27;;;;;;;10.17;6.90;;;;;;;6.44;100.00;100950.00;5037611;56;1140892;-67
2023/01/06 22:45:35;;;;;;;7.73;5.57;;;;;;;6.42;100.00;100944.82;5057324;56;1141046;-70
2023/01/06 22:50:40;;;;;;;7.90;5.10;;;;;;;6.43;100.00;100944.36;5037865;56;1138872;-70
2023/01/06 22:55:46;;;;;;;10.13;6.70;;;;;;;6.41;100.00;100944.94;5038072;56;1138862;-73
2023/01/06 23:00:52;;;;;;;11.67;7.63;;;;;;;6.40;100.00;100948.48;5057414;56;1140840;-71
2023/01/06 23:06:03;;;;;;;17.70;7.67;;;;;;;6.23;100.00;100953.32;5040158;56;1140733;-74
2023/01/06 23:11:13;;;;;;;11.65;7.47;;;;;;;6.23;100.00;100953.32;5004105;57;1140756;-71
2023/01/06 23:16:21;;;;;;;16.10;9.20;;;;;;;6.22;100.00;100962.98;5047252;56;1140963;-72
2023/01/06 23:21:30;;;;;;;16.67;8.57;;;;;;;6.19;100.00;100964.91;5147401;56;1140872;-68